Terminal Aerodrome Forecast
Issued by NWS Charleston, WV

Current Version | Previous Version | Text Only | Print | Product List | Glossary Off
Versions: 1 2 3 4 5 6 7 8 9 10 11 12 13 14 15 16 17 18 19 20 21 22 23 24

568
FTUS41 KRLX 111759
TAFEKN
TAF
KEKN 111759Z 1118/1218 29012G18KT P6SM -SHSN OVC025
     FM112200 29008G15KT P6SM BKN035
     FM120200 28004KT P6SM BKN050
     FM120400 VRB02KT P6SM SCT080
     FM121100 VRB03KT P6SM BKN080
     FM121700 24005KT 5SM -SN OVC025=

USA.gov is the U.S. government's official web portal to all federal, state and local government web resources and services.